Time;durP1;ratioP1;P1;durP2;ratioP2;P2;SDS_P1;SDS_P2;PMS_P1;PMS_P2;Temp;Humidity;BMP_temperature;BMP_pressure;BME280_temperature;BME280_humidity;BME280_pressure;Samples;Min_cycle;Max_cycle;Signal;HPM_P1;HPM_P2
2022/04/15 00:00:42;;;;;;;36.80;20.23;;;8.50;92.10;;;;;;5071740;28;20072;-85
2022/04/15 00:03:08;;;;;;;35.33;19.98;;;8.40;93.40;;;;;;5072564;28;20061;-87
2022/04/15 00:05:40;;;;;;;43.28;23.13;;;8.30;94.30;;;;;;5071901;28;20029;-84
2022/04/15 00:08:13;;;;;;;46.57;26.87;;;8.20;95.50;;;;;;5074639;28;20025;-84
2022/04/15 00:10:45;;;;;;;46.28;27.17;;;8.10;94.60;;;;;;5075952;28;20381;-89
2022/04/15 00:13:12;;;;;;;55.40;30.83;;;8.00;94.90;;;;;;5076829;28;20025;-90
2022/04/15 00:15:38;;;;;;;59.80;32.95;;;8.00;93.50;;;;;;5075876;28;20025;-85
2022/04/15 00:18:05;;;;;;;56.17;31.15;;;8.00;92.80;;;;;;5076660;28;20036;-85
2022/04/15 00:20:30;;;;;;;50.95;28.13;;;8.10;92.30;;;;;;5075936;28;20017;-90
2022/04/15 00:22:58;;;;;;;40.72;24.83;;;8.00;93.90;;;;;;5058564;28;20029;-89
2022/04/15 00:25:24;;;;;;;40.95;24.55;;;8.10;93.40;;;;;;5058157;28;20016;-85
2022/04/15 00:27:50;;;;;;;37.45;21.52;;;8.10;91.70;;;;;;5076172;28;20048;-89
2022/04/15 00:30:15;;;;;;;38.83;22.50;;;8.20;90.30;;;;;;5058071;28;20508;-90
2022/04/15 00:32:41;;;;;;;34.42;20.35;;;8.30;90.00;;;;;;5058058;28;20089;-90
2022/04/15 00:35:08;;;;;;;34.72;21.33;;;8.40;88.40;;;;;;5057699;28;20474;-87
2022/04/15 00:37:34;;;;;;;40.10;21.13;;;8.40;87.10;;;;;;5075971;28;20424;-90
2022/04/15 00:40:02;;;;;;;39.60;21.85;;;8.50;88.20;;;;;;5075507;28;20401;-85
2022/04/15 00:42:28;;;;;;;33.45;20.52;;;8.60;88.40;;;;;;5075903;28;20044;-85
2022/04/15 00:44:58;;;;;;;36.70;22.10;;;8.60;89.10;;;;;;5057754;28;20485;-85
2022/04/15 00:47:42;;;;;;;38.67;22.15;;;8.60;90.30;;;;;;5075921;28;20020;-85
2022/04/15 00:50:08;;;;;;;46.83;23.88;;;8.60;90.50;;;;;;5074430;28;20044;-90
2022/04/15 00:52:43;;;;;;;48.10;28.60;;;8.50;89.90;;;;;;5075954;28;20377;-85
2022/04/15 00:55:10;;;;;;;52.08;30.17;;;8.50;91.10;;;;;;5057310;28;20471;-91
2022/04/15 00:57:40;;;;;;;49.72;27.35;;;8.40;92.20;;;;;;5057772;28;20088;-86
2022/04/15 01:00:07;;;;;;;48.55;27.17;;;8.30;93.70;;;;;;5053640;28;20114;-91
2022/04/15 01:02:33;;;;;;;50.95;28.13;;;8.20;95.40;;;;;;5055763;28;20033;-85
2022/04/15 01:05:02;;;;;;;47.80;26.90;;;8.20;97.00;;;;;;5055105;28;20032;-91
2022/04/15 01:07:37;;;;;;;44.92;25.88;;;8.30;96.70;;;;;;5054125;28;20051;-85
2022/04/15 01:10:06;;;;;;;48.00;25.05;;;8.20;95.80;;;;;;5055134;28;20036;-85
2022/04/15 01:12:35;;;;;;;44.90;24.55;;;8.20;95.60;;;;;;5055440;28;20021;-91
2022/04/15 01:15:04;;;;;;;45.05;24.90;;;8.30;94.90;;;;;;5053654;28;20458;-91
2022/04/15 01:17:30;;;;;;;47.58;26.80;;;8.30;92.70;;;;;;5055115;28;20037;-90
2022/04/15 01:19:55;;;;;;;38.45;23.02;;;8.30;94.70;;;;;;5052648;28;20021;-85
2022/04/15 01:22:24;;;;;;;35.28;21.00;;;8.20;97.00;;;;;;5055233;28;20029;-85
2022/04/15 01:24:53;;;;;;;37.42;22.75;;;8.10;99.60;;;;;;5053521;28;20105;-84
2022/04/15 01:27:39;;;;;;;31.75;20.05;;;8.20;99.30;;;;;;5054169;28;20048;-91
2022/04/15 01:30:09;;;;;;;39.80;22.00;;;8.20;99.90;;;;;;5055052;28;20024;-85
2022/04/15 01:32:35;;;;;;;48.05;26.20;;;8.20;99.90;;;;;;5054191;28;20024;-85
2022/04/15 01:35:00;;;;;;;46.97;26.38;;;8.10;99.90;;;;;;5052933;28;20025;-90
2022/04/15 01:37:30;;;;;;;53.22;27.60;;;8.10;99.90;;;;;;5053585;28;20048;-85
2022/04/15 01:39:57;;;;;;;51.85;28.45;;;8.10;99.90;;;;;;5054839;28;20138;-85
2022/04/15 01:42:23;;;;;;;47.85;26.38;;;8.00;99.90;;;;;;5053367;28;20439;-86
2022/04/15 01:44:49;;;;;;;52.05;27.50;;;8.00;99.90;;;;;;5054480;28;20032;-89
2022/04/15 01:47:16;;;;;;;44.20;26.33;;;8.00;99.90;;;;;;5054358;28;20378;-86
2022/04/15 01:49:42;;;;;;;43.42;24.73;;;7.90;99.90;;;;;;5054339;28;20025;-90
2022/04/15 01:52:08;;;;;;;42.40;24.00;;;8.00;99.20;;;;;;5054737;28;20021;-90
2022/04/15 01:54:34;;;;;;;41.83;23.65;;;8.10;98.30;;;;;;5054605;28;20025;-90
2022/04/15 01:57:01;;;;;;;42.80;23.70;;;8.10;97.00;;;;;;5054550;28;20441;-88
2022/04/15 01:59:27;;;;;;;45.03;22.67;;;8.10;95.40;;;;;;5059915;28;20059;-87
2022/04/15 02:01:55;;;;;;;40.70;23.02;;;8.10;97.90;;;;;;5074362;28;20382;-89
2022/04/15 02:04:22;;;;;;;44.25;24.60;;;8.10;98.70;;;;;;5056395;28;20027;-90
2022/04/15 02:06:48;;;;;;;36.97;21.17;;;8.10;98.50;;;;;;5074390;28;20048;-85
2022/04/15 02:09:13;;;;;;;40.85;22.00;;;8.20;95.70;;;;;;5074357;28;20031;-85
2022/04/15 02:11:39;;;;;;;38.00;20.85;;;8.20;93.50;;;;;;5056225;28;20021;-88
2022/04/15 02:14:05;;;;;;;38.75;21.45;;;8.20;93.30;;;;;;5073674;28;20039;-89
2022/04/15 02:16:30;;;;;;;37.63;21.00;;;8.30;90.20;;;;;;5074312;28;20028;-85
2022/04/15 02:18:57;;;;;;;36.97;20.30;;;8.30;90.60;;;;;;5073822;28;20032;-85
2022/04/15 02:21:22;;;;;;;36.03;20.73;;;8.40;89.20;;;;;;5056406;28;20021;-88
2022/04/15 02:23:48;;;;;;;33.63;21.45;;;8.50;89.20;;;;;;5055442;28;20512;-84
2022/04/15 02:26:14;;;;;;;41.20;21.52;;;8.50;88.30;;;;;;5074050;28;20032;-85
2022/04/15 02:28:40;;;;;;;35.78;20.80;;;8.50;86.90;;;;;;5073589;28;20021;-89
2022/04/15 02:31:06;;;;;;;36.78;20.13;;;8.60;85.60;;;;;;5073553;28;20055;-86
2022/04/15 02:33:32;;;;;;;36.50;22.30;;;8.60;86.90;;;;;;5073772;28;20482;-85
2022/04/15 02:35:57;;;;;;;36.33;21.52;;;8.70;85.50;;;;;;5073190;28;20016;-86
2022/04/15 02:38:23;;;;;;;35.15;22.95;;;8.80;86.20;;;;;;5073813;28;20070;-85
2022/04/15 02:40:49;;;;;;;35.03;21.20;;;8.80;89.40;;;;;;5055448;28;20560;-85
2022/04/15 02:43:15;;;;;;;39.42;23.35;;;8.80;89.10;;;;;;5073474;28;20086;-85
2022/04/15 02:45:42;;;;;;;38.45;22.02;;;8.90;90.10;;;;;;5072946;28;20044;-89
2022/04/15 02:48:07;;;;;;;41.92;22.83;;;8.90;91.40;;;;;;5073766;28;20047;-85
2022/04/15 02:50:34;;;;;;;38.70;23.48;;;9.00;92.70;;;;;;5073109;28;20033;-89
2022/04/15 02:53:01;;;;;;;39.30;22.60;;;8.90;94.80;;;;;;5073133;28;20032;-85
2022/04/15 02:55:27;;;;;;;49.78;28.52;;;9.00;94.60;;;;;;5072839;28;20032;-90
2022/04/15 02:57:52;;;;;;;43.92;24.45;;;9.10;96.40;;;;;;5073318;28;20093;-85
2022/04/15 03:00:19;;;;;;;47.38;27.35;;;9.10;97.50;;;;;;5072400;28;20052;-85
2022/04/15 03:02:44;;;;;;;41.38;24.65;;;9.20;99.00;;;;;;5073284;28;20027;-85
2022/04/15 03:05:10;;;;;;;40.83;24.80;;;9.20;99.90;;;;;;5055113;28;20029;-90
2022/04/15 03:07:39;;;;;;;46.83;26.27;;;9.20;99.90;;;;;;5055305;28;20025;-86
2022/04/15 03:10:06;;;;;;;46.85;25.95;;;9.20;99.90;;;;;;5072788;28;20147;-85
2022/04/15 03:12:36;;;;;;;42.22;25.23;;;9.20;99.90;;;;;;5072905;28;20021;-85
2022/04/15 03:15:04;;;;;;;43.13;25.95;;;9.30;99.90;;;;;;5072632;28;20028;-90
2022/04/15 03:17:29;;;;;;;42.72;25.45;;;9.40;99.90;;;;;;5072948;28;20033;-85
2022/04/15 03:19:55;;;;;;;45.15;27.33;;;9.50;99.90;;;;;;5072700;28;20371;-85
2022/04/15 03:22:21;;;;;;;45.47;27.67;;;9.60;99.90;;;;;;5073132;28;20024;-89
2022/04/15 03:24:48;;;;;;;49.67;28.80;;;9.70;99.90;;;;;;5072467;28;20028;-85
2022/04/15 03:27:14;;;;;;;41.78;25.25;;;9.80;99.90;;;;;;5073132;28;20377;-85
2022/04/15 03:29:40;;;;;;;44.58;26.73;;;10.00;99.90;;;;;;5072502;28;20030;-85
2022/04/15 03:32:06;;;;;;;44.97;28.13;;;10.00;99.90;;;;;;5073123;28;20499;-86
2022/04/15 03:34:32;;;;;;;44.58;28.27;;;10.10;99.90;;;;;;5072399;28;20610;-85
2022/04/15 03:36:58;;;;;;;45.08;26.20;;;10.20;99.90;;;;;;5072800;28;20025;-88
2022/04/15 03:39:23;;;;;;;43.50;25.67;;;10.20;99.90;;;;;;5072645;28;20021;-85
2022/04/15 03:41:49;;;;;;;41.05;24.65;;;10.30;99.90;;;;;;5072076;28;20029;-89
2022/04/15 03:44:15;;;;;;;45.13;25.65;;;10.30;99.90;;;;;;5072464;28;20025;-85
2022/04/15 03:46:41;;;;;;;42.40;25.75;;;10.30;99.90;;;;;;5072787;28;20029;-85
2022/04/15 03:49:07;;;;;;;40.08;25.85;;;10.30;99.90;;;;;;5072199;28;20031;-85
2022/04/15 03:51:34;;;;;;;39.85;26.08;;;10.40;99.90;;;;;;5072800;28;20070;-87
2022/04/15 03:53:59;;;;;;;40.70;24.13;;;10.40;99.90;;;;;;5072257;28;20476;-87
2022/04/15 03:56:25;;;;;;;36.97;23.52;;;10.50;99.90;;;;;;5054431;28;20039;-83
2022/04/15 03:58:50;;;;;;;36.40;23.45;;;10.50;99.90;;;;;;5071637;28;20029;-88
2022/04/15 04:01:16;;;;;;;33.60;22.48;;;10.50;99.90;;;;;;5072594;28;20477;-87
2022/04/15 04:03:42;;;;;;;30.63;20.25;;;10.60;99.90;;;;;;5072359;28;20025;-82
2022/04/15 04:06:08;;;;;;;31.77;19.83;;;10.60;99.90;;;;;;5072136;28;20036;-86
2022/04/15 04:08:33;;;;;;;31.27;20.17;;;10.60;99.90;;;;;;5054856;28;20028;-87
2022/04/15 04:10:59;;;;;;;30.85;20.17;;;10.60;99.90;;;;;;5072057;28;20017;-83
2022/04/15 04:13:24;;;;;;;33.55;19.00;;;10.60;99.90;;;;;;5072455;28;20462;-82
2022/04/15 04:15:50;;;;;;;29.52;18.60;;;10.60;99.90;;;;;;5072114;28;20028;-83
2022/04/15 04:18:20;;;;;;;30.38;18.65;;;10.60;99.90;;;;;;5072528;28;20036;-88
2022/04/15 04:20:46;;;;;;;33.78;21.23;;;10.60;99.90;;;;;;5072288;28;20062;-82
2022/04/15 04:23:12;;;;;;;29.60;18.60;;;10.50;99.90;;;;;;5054967;28;20024;-85
2022/04/15 04:25:38;;;;;;;26.48;17.33;;;10.50;99.90;;;;;;5072039;28;20028;-87
2022/04/15 04:28:04;;;;;;;25.73;16.25;;;10.40;99.90;;;;;;5072162;28;20100;-83
2022/04/15 04:30:29;;;;;;;24.38;16.77;;;10.30;99.90;;;;;;5071851;28;20032;-86
2022/04/15 04:32:58;;;;;;;26.23;16.15;;;10.30;99.90;;;;;;5054630;28;20031;-84
2022/04/15 04:35:23;;;;;;;24.67;16.00;;;10.20;99.90;;;;;;5071917;28;20021;-87
2022/04/15 04:37:49;;;;;;;23.60;15.15;;;10.20;99.90;;;;;;5053838;28;20463;-84
2022/04/15 04:40:15;;;;;;;23.23;14.88;;;10.20;99.90;;;;;;5071940;28;20024;-87
2022/04/15 04:42:42;;;;;;;22.70;15.85;;;10.30;99.90;;;;;;5072154;28;20485;-84
2022/04/15 04:45:10;;;;;;;25.33;15.68;;;10.20;99.90;;;;;;5071944;28;20029;-89
2022/04/15 04:47:38;;;;;;;23.25;15.35;;;10.20;99.90;;;;;;5054530;28;20027;-88
2022/04/15 04:50:05;;;;;;;23.42;14.15;;;10.20;99.90;;;;;;5054068;28;20382;-83
2022/04/15 04:52:31;;;;;;;22.00;14.40;;;10.20;99.90;;;;;;5070689;28;20032;-83
2022/04/15 04:54:58;;;;;;;24.38;15.68;;;10.20;99.90;;;;;;5073439;28;20085;-88
2022/04/15 04:57:24;;;;;;;22.77;14.27;;;10.20;99.90;;;;;;5074235;28;20482;-88
2022/04/15 04:59:50;;;;;;;22.20;14.07;;;10.30;99.90;;;;;;5074862;28;20106;-88
2022/04/15 05:02:15;;;;;;;18.95;13.70;;;10.30;99.90;;;;;;5057797;28;20017;-82
2022/04/15 05:04:41;;;;;;;22.30;14.80;;;10.30;99.90;;;;;;5057483;28;20489;-83
2022/04/15 05:07:07;;;;;;;23.98;15.85;;;10.30;99.90;;;;;;5075550;28;20469;-88
2022/04/15 05:09:32;;;;;;;22.67;14.18;;;10.30;99.90;;;;;;5057287;28;20016;-82
2022/04/15 05:11:58;;;;;;;25.10;14.88;;;10.20;99.90;;;;;;5075376;28;20027;-87
2022/04/15 05:14:24;;;;;;;20.15;14.68;;;10.20;99.90;;;;;;5053985;28;20021;-83
2022/04/15 05:16:50;;;;;;;22.13;14.35;;;10.20;99.90;;;;;;5061556;28;20473;-83
2022/04/15 05:19:15;;;;;;;21.90;14.45;;;10.20;99.90;;;;;;5074775;28;20067;-82
2022/04/15 05:21:41;;;;;;;20.13;12.63;;;10.10;99.90;;;;;;5055911;28;20512;-84
2022/04/15 05:24:08;;;;;;;21.00;14.88;;;10.10;99.90;;;;;;5072867;28;20036;-87
2022/04/15 05:26:35;;;;;;;23.40;14.70;;;10.00;99.90;;;;;;5055465;28;20470;-87
2022/04/15 05:29:02;;;;;;;16.98;12.75;;;9.90;99.90;;;;;;5072646;28;20034;-86
2022/04/15 05:31:27;;;;;;;21.67;14.18;;;9.90;99.90;;;;;;5073558;28;20020;-87
2022/04/15 05:33:53;;;;;;;20.38;14.23;;;9.80;99.90;;;;;;5055018;28;20021;-83
2022/04/15 05:36:19;;;;;;;23.45;12.65;;;9.80;99.90;;;;;;5074754;28;20097;-84
2022/04/15 05:38:45;;;;;;;18.50;12.43;;;9.80;99.90;;;;;;5074526;28;20099;-81
2022/04/15 05:41:10;;;;;;;17.80;11.55;;;9.80;99.90;;;;;;5074726;28;20025;-82
2022/04/15 05:43:37;;;;;;;13.57;10.32;;;9.80;99.90;;;;;;5075040;28;20028;-83
2022/04/15 05:46:03;;;;;;;14.57;10.48;;;9.80;99.90;;;;;;5074281;28;20021;-83
2022/04/15 05:48:29;;;;;;;15.80;10.57;;;9.80;99.90;;;;;;5074629;28;20397;-82
2022/04/15 05:50:55;;;;;;;14.88;9.48;;;9.80;99.90;;;;;;5074357;28;20017;-83
2022/04/15 05:53:21;;;;;;;15.75;10.10;;;9.70;99.90;;;;;;5074841;28;20389;-82
2022/04/15 05:55:46;;;;;;;13.40;8.85;;;9.80;99.90;;;;;;5073975;28;20529;-87
2022/04/15 05:58:12;;;;;;;16.50;9.75;;;9.80;99.90;;;;;;5056698;28;20472;-88
2022/04/15 06:00:38;;;;;;;14.75;9.85;;;9.80;99.90;;;;;;5055880;28;20059;-89
2022/04/15 06:03:04;;;;;;;15.73;10.15;;;9.80;99.90;;;;;;5074017;28;20020;-83
2022/04/15 06:05:30;;;;;;;14.00;9.43;;;9.80;99.90;;;;;;5073811;28;20090;-88
2022/04/15 06:07:56;;;;;;;15.20;9.75;;;9.80;99.90;;;;;;5074329;28;20482;-81
2022/04/15 06:10:22;;;;;;;21.65;12.68;;;9.80;99.90;;;;;;5073400;28;20028;-82
2022/04/15 06:15:32;;;;;;;18.95;12.13;;;9.80;99.90;;;;;;5073951;28;20078;-88
2022/04/15 06:18:03;;;;;;;19.08;13.20;;;9.80;99.90;;;;;;5073182;28;20075;-83
2022/04/15 06:20:29;;;;;;;20.90;13.20;;;9.80;99.90;;;;;;5072169;28;20043;-88
2022/04/15 06:22:55;;;;;;;20.77;14.68;;;9.80;99.90;;;;;;5055560;28;20477;-82
2022/04/15 06:25:21;;;;;;;25.60;15.00;;;9.80;99.90;;;;;;5074163;28;20058;-84
2022/04/15 06:27:47;;;;;;;23.92;14.02;;;9.80;99.90;;;;;;5073423;28;20028;-85
2022/04/15 06:30:13;;;;;;;21.17;14.10;;;9.80;99.90;;;;;;5055204;28;20039;-88
2022/04/15 06:32:39;;;;;;;23.27;13.60;;;9.80;99.90;;;;;;5073803;28;20024;-88
2022/04/15 06:35:06;;;;;;;19.75;14.82;;;9.80;99.90;;;;;;5055544;28;20389;-88
2022/04/15 06:37:32;;;;;;;21.42;13.85;;;9.80;99.90;;;;;;5055662;28;20036;-82
2022/04/15 06:39:58;;;;;;;22.40;14.65;;;9.80;99.90;;;;;;5073594;28;20020;-88
2022/04/15 06:42:25;;;;;;;25.77;15.40;;;9.80;99.90;;;;;;5073857;28;20020;-82
2022/04/15 06:44:51;;;;;;;24.80;16.98;;;9.90;99.90;;;;;;5073513;28;20028;-88
2022/04/15 06:47:18;;;;;;;22.90;16.08;;;9.90;99.90;;;;;;5048021;28;20452;-82
2022/04/15 06:49:45;;;;;;;27.10;16.83;;;9.90;99.90;;;;;;5052279;28;20099;-81
2022/04/15 06:52:12;;;;;;;23.27;16.70;;;10.00;99.90;;;;;;5051727;28;20033;-82
2022/04/15 06:54:38;;;;;;;28.33;17.40;;;10.00;99.90;;;;;;5052511;28;20017;-89
2022/04/15 06:57:04;;;;;;;28.50;19.20;;;10.10;99.90;;;;;;5052099;28;20049;-82
2022/04/15 06:59:30;;;;;;;31.88;20.23;;;10.10;99.90;;;;;;5052631;28;20114;-82
2022/04/15 07:01:56;;;;;;;33.10;19.90;;;10.10;99.90;;;;;;5049659;28;20037;-83
2022/04/15 07:04:23;;;;;;;32.65;19.52;;;10.10;99.90;;;;;;5052611;28;20111;-83
2022/04/15 07:06:49;;;;;;;31.23;19.92;;;10.10;99.90;;;;;;5066497;28;20047;-88
2022/04/15 07:09:15;;;;;;;31.73;21.33;;;10.10;99.90;;;;;;5073028;28;20017;-83
2022/04/15 07:11:41;;;;;;;31.27;20.77;;;10.10;99.90;;;;;;5071221;28;20043;-87
2022/04/15 07:14:06;;;;;;;40.83;23.15;;;10.10;99.90;;;;;;5054201;28;20477;-82
2022/04/15 07:16:34;;;;;;;46.08;25.95;;;10.10;99.90;;;;;;5070149;28;20044;-83
2022/04/15 07:19:09;;;;;;;43.70;27.13;;;10.10;99.90;;;;;;5072655;28;20028;-83
2022/04/15 07:21:37;;;;;;;42.42;26.98;;;10.10;99.90;;;;;;5053473;28;20028;-88
2022/04/15 07:24:04;;;;;;;39.28;24.67;;;10.10;99.90;;;;;;5072536;28;20436;-82
2022/04/15 07:26:31;;;;;;;42.33;26.88;;;10.10;99.90;;;;;;5070679;28;20036;-82
2022/04/15 07:28:57;;;;;;;38.65;24.02;;;10.10;99.90;;;;;;5072878;28;20074;-89
2022/04/15 07:31:23;;;;;;;40.03;24.60;;;10.10;99.90;;;;;;5070258;28;20028;-83
2022/04/15 07:33:49;;;;;;;45.08;26.52;;;10.10;99.90;;;;;;5071341;28;20032;-89
2022/04/15 07:39:16;;;;;;;41.67;24.10;;;10.20;99.90;;;;;;5027057;28;20040;-83
2022/04/15 07:41:42;;;;;;;40.88;25.58;;;10.20;99.90;;;;;;5071303;28;20040;-84
2022/04/15 07:44:10;;;;;;;43.35;25.45;;;10.30;99.90;;;;;;5054103;28;20027;-82
2022/04/15 07:46:36;;;;;;;40.78;24.27;;;10.30;99.90;;;;;;5055029;28;20025;-88
2022/04/15 07:49:03;;;;;;;46.15;25.90;;;10.20;99.90;;;;;;5072156;28;20103;-83
2022/04/15 07:51:29;;;;;;;46.30;25.38;;;10.20;99.90;;;;;;5072023;28;20021;-83
2022/04/15 07:53:55;;;;;;;37.50;23.73;;;10.30;99.90;;;;;;5072971;28;20012;-82
2022/04/15 07:56:21;;;;;;;43.55;24.13;;;10.20;99.90;;;;;;5054727;28;20028;-88
2022/04/15 07:58:46;;;;;;;42.83;24.27;;;10.30;99.90;;;;;;5071544;28;20036;-86
2022/04/15 08:01:12;;;;;;;39.33;22.02;;;10.30;99.90;;;;;;5055952;28;20120;-83
2022/04/15 08:03:39;;;;;;;39.35;23.60;;;10.30;99.90;;;;;;5052528;28;20072;-82
2022/04/15 08:06:05;;;;;;;38.92;22.70;;;10.30;99.90;;;;;;5068551;28;20020;-83
2022/04/15 08:08:30;;;;;;;38.80;22.40;;;10.30;99.90;;;;;;5051234;28;20035;-88
2022/04/15 08:10:57;;;;;;;36.97;22.27;;;10.30;99.90;;;;;;5057445;28;20035;-87
2022/04/15 08:13:26;;;;;;;39.08;24.05;;;10.30;99.90;;;;;;5070356;28;20037;-88
2022/04/15 08:15:53;;;;;;;43.22;23.67;;;10.30;99.90;;;;;;5069766;28;20041;-83
2022/04/15 08:18:23;;;;;;;41.35;26.27;;;10.30;99.90;;;;;;5070713;28;20036;-83
2022/04/15 08:20:50;;;;;;;38.42;22.52;;;10.40;99.90;;;;;;5055850;28;20491;-83
2022/04/15 08:23:16;;;;;;;37.83;23.80;;;10.30;99.90;;;;;;5071500;28;20032;-89
2022/04/15 08:25:43;;;;;;;33.22;20.50;;;10.40;99.90;;;;;;5053169;28;20480;-82
2022/04/15 08:28:10;;;;;;;58.53;30.33;;;10.40;99.90;;;;;;5071980;28;20036;-88
2022/04/15 08:30:37;;;;;;;54.63;30.27;;;10.40;99.90;;;;;;5073935;28;20094;-88
2022/04/15 08:33:05;;;;;;;39.20;25.38;;;10.50;99.90;;;;;;5057174;28;20033;-83
2022/04/15 08:35:31;;;;;;;31.70;21.13;;;10.50;99.90;;;;;;5057101;28;20112;-89
2022/04/15 08:37:57;;;;;;;51.80;29.08;;;10.40;99.90;;;;;;5075072;28;20052;-89
2022/04/15 08:40:27;;;;;;;97.88;49.42;;;10.50;99.90;;;;;;5076165;28;20025;-89
2022/04/15 08:42:53;;;;;;;156.63;82.50;;;10.60;99.90;;;;;;5074761;28;20498;-90
2022/04/15 08:45:21;;;;;;;129.18;60.20;;;10.70;99.90;;;;;;5074388;28;20056;-82
2022/04/15 08:47:48;;;;;;;250.38;111.13;;;10.80;99.90;;;;;;5057070;28;20040;-82
2022/04/15 08:50:14;;;;;;;43.75;24.05;;;10.80;99.90;;;;;;5074773;28;20115;-87
2022/04/15 08:52:41;;;;;;;49.40;27.00;;;10.90;99.90;;;;;;5056595;28;20029;-82
2022/04/15 08:55:07;;;;;;;88.72;50.28;;;11.00;99.90;;;;;;5074707;28;20028;-87
2022/04/15 08:57:33;;;;;;;79.50;45.38;;;11.10;99.90;;;;;;5074212;28;20504;-83
2022/04/15 08:59:59;;;;;;;55.38;31.63;;;11.10;99.90;;;;;;5073639;28;20119;-87
2022/04/15 09:02:37;;;;;;;56.38;30.58;;;11.20;99.90;;;;;;5074428;28;20047;-87
2022/04/15 09:05:06;;;;;;;25.17;16.40;;;11.30;99.90;;;;;;5074512;28;20032;-88
2022/04/15 09:07:34;;;;;;;13.77;9.95;;;11.40;99.90;;;;;;5056863;28;20067;-87
2022/04/15 09:10:01;;;;;;;13.20;9.52;;;11.40;99.90;;;;;;5056104;28;20025;-87
2022/04/15 09:12:29;;;;;;;32.35;18.25;;;11.50;99.90;;;;;;5075471;28;20036;-87
2022/04/15 09:14:59;;;;;;;47.15;24.02;;;11.60;99.90;;;;;;5057378;28;20042;-87
2022/04/15 09:17:27;;;;;;;19.38;11.75;;;11.50;99.90;;;;;;5075592;28;20029;-86
2022/04/15 09:19:53;;;;;;;11.27;7.72;;;11.40;99.90;;;;;;5074868;28;20095;-87
2022/04/15 09:22:19;;;;;;;6.72;5.53;;;11.60;99.90;;;;;;5075007;28;20103;-86
2022/04/15 09:24:46;;;;;;;10.18;6.55;;;11.60;99.90;;;;;;5074115;28;20029;-82
2022/04/15 09:27:12;;;;;;;7.63;5.00;;;11.60;99.90;;;;;;5073293;28;20039;-87
2022/04/15 09:29:40;;;;;;;12.27;5.45;;;11.70;99.90;;;;;;5056496;28;20054;-83
2022/04/15 09:32:14;;;;;;;7.78;4.90;;;11.80;99.90;;;;;;5075025;28;20538;-83
2022/04/15 09:34:59;;;;;;;5.28;3.70;;;12.00;99.90;;;;;;5057435;28;20024;-87
2022/04/15 09:37:30;;;;;;;4.30;2.60;;;12.00;99.90;;;;;;5056912;28;20082;-83
2022/04/15 09:40:25;;;;;;;3.85;3.40;;;12.20;99.90;;;;;;5055471;28;20035;-87
2022/04/15 09:42:52;;;;;;;4.43;3.42;;;12.30;99.90;;;;;;5073486;28;20120;-84
2022/04/15 09:45:21;;;;;;;4.88;3.13;;;12.30;99.90;;;;;;5064475;28;20029;-83
2022/04/15 09:48:02;;;;;;;4.68;3.15;;;12.30;99.90;;;;;;5047999;28;20381;-87
2022/04/15 09:50:34;;;;;;;4.57;3.13;;;12.10;99.90;;;;;;5072690;28;20067;-82
2022/04/15 09:53:12;;;;;;;9.32;4.10;;;12.00;99.90;;;;;;5073200;28;20483;-86
2022/04/15 09:55:40;;;;;;;3.60;2.78;;;12.00;99.90;;;;;;5055616;28;20020;-87
2022/04/15 09:58:13;;;;;;;4.40;3.85;;;12.10;99.90;;;;;;5073029;28;20081;-83
2022/04/15 10:00:41;;;;;;;3.92;3.53;;;12.20;99.90;;;;;;5072690;28;20537;-82
2022/04/15 10:03:11;;;;;;;4.70;3.70;;;12.30;99.90;;;;;;5073441;28;20107;-87
2022/04/15 10:05:41;;;;;;;3.22;2.90;;;12.50;99.90;;;;;;5054316;28;20025;-83
2022/04/15 10:08:08;;;;;;;3.72;2.63;;;12.60;99.90;;;;;;5073556;28;20031;-82
2022/04/15 10:10:34;;;;;;;2.80;2.50;;;12.60;99.90;;;;;;5071544;28;20037;-83
2022/04/15 10:13:03;;;;;;;4.10;3.00;;;12.60;99.90;;;;;;5060592;28;20101;-88
2022/04/15 10:15:30;;;;;;;6.10;2.70;;;12.70;99.90;;;;;;5071853;28;20120;-82
2022/04/15 10:18:00;;;;;;;4.15;3.03;;;12.70;99.90;;;;;;5073005;28;20470;-89
2022/04/15 10:20:27;;;;;;;4.20;3.35;;;12.60;99.90;;;;;;5071041;28;20044;-87
2022/04/15 10:22:55;;;;;;;5.60;3.38;;;12.60;99.90;;;;;;5054982;28;20520;-88
2022/04/15 10:25:21;;;;;;;3.70;3.00;;;12.90;99.90;;;;;;5055467;28;20033;-83
2022/04/15 10:27:48;;;;;;;3.40;3.00;;;13.10;99.90;;;;;;5071859;28;20103;-88
2022/04/15 10:30:18;;;;;;;3.63;3.33;;;13.30;99.90;;;;;;5072870;28;20067;-83
2022/04/15 10:32:52;;;;;;;3.45;3.13;;;13.50;99.90;;;;;;5054955;28;20059;-84
2022/04/15 10:35:34;;;;;;;3.17;2.88;;;13.50;99.90;;;;;;5072544;28;20033;-84
2022/04/15 10:38:01;;;;;;;5.77;3.30;;;13.70;99.90;;;;;;5059601;28;20466;-86
2022/04/15 10:40:32;;;;;;;4.85;3.13;;;13.80;99.90;;;;;;5072205;28;20094;-85
2022/04/15 10:43:27;;;;;;;5.80;3.72;;;13.90;99.90;;;;;;5072501;28;20048;-81
2022/04/15 10:46:15;;;;;;;4.53;3.03;;;13.80;99.90;;;;;;5037099;28;20035;-81
2022/04/15 10:48:42;;;;;;;2.42;2.20;;;13.70;99.90;;;;;;5053933;28;20035;-85
2022/04/15 10:51:25;;;;;;;3.58;2.50;;;13.50;99.90;;;;;;5072235;28;20024;-85
2022/04/15 10:53:52;;;;;;;5.18;3.40;;;13.40;99.90;;;;;;5071255;28;20537;-82
2022/04/15 10:56:20;;;;;;;3.92;2.80;;;13.30;99.90;;;;;;5054710;28;20420;-84
2022/04/15 11:02:02;;;;;;;5.43;4.57;;;13.10;99.90;;;;;;5072092;28;20052;-88
2022/04/15 11:04:35;;;;;;;5.18;3.22;;;13.20;99.90;;;;;;5070999;28;20770;-88
2022/04/15 11:07:24;;;;;;;4.75;3.25;;;13.20;99.90;;;;;;5072291;28;20028;-83
2022/04/15 11:09:49;;;;;;;13.95;5.05;;;13.20;99.90;;;;;;5070580;28;20094;-84
2022/04/15 11:12:28;;;;;;;4.32;3.92;;;13.20;99.90;;;;;;5072072;28;20120;-88
2022/04/15 11:14:54;;;;;;;3.53;3.22;;;13.40;99.90;;;;;;5070531;28;20028;-88
2022/04/15 11:17:37;;;;;;;4.43;3.47;;;13.50;99.90;;;;;;5054497;28;20025;-88
2022/04/15 11:20:04;;;;;;;5.03;3.25;;;13.70;99.90;;;;;;5071090;28;20111;-89
2022/04/15 11:22:31;;;;;;;5.45;3.25;;;13.70;94.10;;;;;;5071785;28;20020;-88
2022/04/15 11:24:56;;;;;;;4.32;3.63;;;13.90;95.90;;;;;;5053158;28;20032;-89
2022/04/15 11:27:23;;;;;;;5.68;3.78;;;14.00;94.70;;;;;;5054129;28;20016;-84
2022/04/15 11:29:50;;;;;;;12.38;6.60;;;14.20;93.20;;;;;;5070975;28;20039;-88
2022/04/15 11:32:15;;;;;;;4.35;3.25;;;14.30;90.40;;;;;;5071963;28;20025;-84
2022/04/15 11:34:42;;;;;;;3.92;3.53;;;14.50;86.00;;;;;;5069074;28;20041;-84
2022/04/15 11:37:09;;;;;;;3.60;3.25;;;14.60;90.20;;;;;;5054442;28;20028;-88
2022/04/15 11:39:35;;;;;;;7.68;4.53;;;14.70;86.70;;;;;;5071190;28;20066;-84
2022/04/15 11:42:06;;;;;;;5.15;3.85;;;15.00;87.90;;;;;;5071748;28;20048;-84
2022/04/15 11:44:32;;;;;;;5.00;3.92;;;15.30;83.60;;;;;;5070791;28;20013;-84
2022/04/15 11:49:46;;;;;;;5.97;4.03;;;15.50;79.50;;;;;;5069993;28;20035;-83
2022/04/15 11:52:26;;;;;;;4.43;3.58;;;15.20;76.00;;;;;;5053715;28;20025;-85
2022/04/15 11:54:53;;;;;;;5.05;4.53;;;15.00;79.40;;;;;;5070840;28;20469;-88
2022/04/15 11:57:19;;;;;;;5.00;4.10;;;14.70;81.20;;;;;;5071640;28;20039;-88
2022/04/15 11:59:46;;;;;;;5.80;4.28;;;14.50;82.20;;;;;;5069324;28;20055;-88
2022/04/15 12:02:14;;;;;;;10.40;4.90;;;14.30;88.20;;;;;;5071839;28;20032;-83
2022/04/15 12:04:53;;;;;;;5.75;4.63;;;13.20;83.60;;;;;;5073372;28;20069;-87
2022/04/15 12:07:20;;;;;;;7.15;4.53;;;12.50;86.90;;;;;;5075801;28;20023;-83
2022/04/15 12:09:47;;;;;;;7.85;5.22;;;12.10;99.30;;;;;;5073893;28;20035;-82
2022/04/15 12:12:14;;;;;;;7.35;4.75;;;11.90;99.90;;;;;;5069885;28;20013;-83
2022/04/15 12:14:41;;;;;;;6.18;5.38;;;11.80;99.90;;;;;;5062027;28;20037;-84
2022/04/15 12:17:14;;;;;;;6.68;5.47;;;11.70;99.90;;;;;;5076116;28;20036;-84
2022/04/15 12:19:39;;;;;;;7.15;5.80;;;11.90;99.90;;;;;;5075716;28;20036;-84
2022/04/15 12:22:07;;;;;;;4.63;4.22;;;12.10;99.90;;;;;;5076187;28;20021;-87
2022/04/15 12:24:33;;;;;;;3.63;2.75;;;12.10;99.90;;;;;;5075272;28;20035;-83
2022/04/15 12:27:00;;;;;;;3.80;2.40;;;12.10;99.90;;;;;;5076228;28;20024;-84
2022/04/15 12:32:23;;;;;;;3.05;2.20;;;12.00;99.90;;;;;;5076438;28;20036;-88
2022/04/15 12:35:10;;;;;;;2.83;2.30;;;12.00;99.90;;;;;;5075345;28;20063;-83
2022/04/15 12:37:44;;;;;;;3.65;2.88;;;12.20;99.90;;;;;;5075344;28;20173;-87
2022/04/15 12:40:19;;;;;;;4.03;2.75;;;12.30;99.90;;;;;;5075866;28;20024;-88
2022/04/15 12:42:48;;;;;;;4.28;3.67;;;12.20;99.90;;;;;;5057910;28;20047;-88
2022/04/15 12:45:24;;;;;;;5.25;3.50;;;12.10;99.90;;;;;;5076109;28;20017;-88
2022/04/15 12:48:04;;;;;;;8.65;5.20;;;11.90;99.90;;;;;;5057951;28;20039;-84
2022/04/15 12:50:33;;;;;;;7.15;4.03;;;11.80;99.90;;;;;;5075339;28;20028;-88
2022/04/15 12:53:00;;;;;;;7.60;4.38;;;11.70;99.90;;;;;;5075129;28;20017;-83